Budapest

METAR
SPECI

METAR LHBP 260230Z VRB01KT CAVOK 20/19 Q1016 NOSIG=

METAR LHBP 260200Z VRB02KT CAVOK 21/18 Q1015 NOSIG=

METAR LHBP 260130Z VRB01KT CAVOK 21/18 Q1015 NOSIG=

METAR LHBP 260100Z VRB03KT CAVOK 21/19 Q1016 NOSIG=

METAR LHBP 260030Z VRB02KT CAVOK 21/19 Q1016 NOSIG=

METAR LHBP 260000Z VRB02KT CAVOK 21/19 Q1016 NOSIG=

METAR LHBP 252330Z VRB03KT CAVOK 22/19 Q1016 NOSIG=


TAF

TAF LHBP 252300Z 2600/2624 VRB03KT CAVOK BECMG 2607/2609 SCT035 SCT100 TEMPO 2609/2619 VRB15G25KT 2000 TSRA BKN004 SCT030CB BKN060 BECMG 2619/2621 CAVOK=

METARRepülőterek meteorológiai tényadatai félóránkéntSAHU31
SAHU41
SPECIKülönleges időjárás-jelentő táviratSPHU31
SPHU85
TAFRepülőterek legfrissebb meteorológiai előrejelzéseFTHU31
FCHU41

GAMET

Nincs érvényes távirat 

FAHU41 LHBM 251100 RRA
LHCC GAMET VALID 251200/251800 LHBP-
BUDAPEST FIR BLW FL100

SECN 1
SIGWX: 12/18 ISOL TS SE OF LINE N4603 E01921 - N4822 E02136
SIG CLD: 12/18 ISOL TCU CB 3500-5000/XXX FT AGL SE OF LINE
N4603 E01921 - N4822 E02136

SIGMETS APPLICABLE: AT TIME OF ISSUE 07=
OMSZ:  [FAHU41]
GAMETTerületi előrejelzés, FL100 (~3000 m) alatti veszélyes időjárási jelenségekrőlFAHU41
AIRMET

Nincs érvényes távirat 

WAHU41 LHBM 141330
LHCC AIRMET 01 VALID 141330/141800 LHBP-
LHCC BUDAPEST FIR ISOL TS OBS WI N4715 E01723 - N4700 E01709
- N4711 E01702 - N4715 E01723 TOP FL330 MOV ESE NC=
OMSZ:  [WAHU41]
AIRMETRiasztás a kisgépes repülés számára veszélyes időjárási jelenség miatt (talajszint és FL100 közötti légtérre)WAHU41
SIGMET

Nincs érvényes távirat 

WSHU31 LHBM 251230
LHCC SIGMET 08 VALID 251230/251430 LHBP-
LHCC BUDAPEST FIR FRQ TS OBS WI N4830 E01930 - N4845 E02100
- N4730 E02100 - N4730 E02000 - N4830 E01930 TOP FL400
MOV ENE 5KT NC AND FRQ TS FCST WI N4630 E01630 -
N4630 E01900 - N4545 E01900 - N4545 E01630 TOP FL380
MOV N 5KT NC=
OMSZ:  [WSHU31]
SIGMETRiasztás, a repülésre különösen veszélyes időjárási jelenség miatt (talajszint és FL450 közötti légtérre)WSHU31
SIGMET
Vulkáni
hamufelhő

Nincs érvényes távirat 

WVHU31 LHBM 271515 CCA
LHCC SIGMET 03 VALID 271515/271800 LHBP-
LHCC BUDAPEST FIR EXERCISE VOLCEX12/01
CNL VA SIGMET 02 271200/271800
EXERCISE EXERCISE EXERCISE VOLCEX12/01=
OMSZ:  [WVHU31]
SIGMET
Vulkáni
hamufelhő
Riasztás, a repülésre különösen veszélyes vulkáni tevékenység miattWVHU31